sensor_id;sensor_type;location;lat;lon;timestamp;pressure;altitude;pressure_sealevel;temperature;humidity
19811;BME280;10065;49.632;8.346;2023-01-30T00:01:54;101351.63;;;3.47;63.72
19811;BME280;10065;49.632;8.346;2023-01-30T00:04:24;101346.38;;;3.47;63.98
19811;BME280;10065;49.632;8.346;2023-01-30T00:06:53;101350.44;;;3.52;63.86
19811;BME280;10065;49.632;8.346;2023-01-30T00:09:21;101348.09;;;3.48;63.74
19811;BME280;10065;49.632;8.346;2023-01-30T00:11:48;101350.41;;;3.36;64.13
19811;BME280;10065;49.632;8.346;2023-01-30T00:14:16;101350.75;;;3.30;64.22
19811;BME280;10065;49.632;8.346;2023-01-30T00:16:44;101340.75;;;3.21;64.61
19811;BME280;10065;49.632;8.346;2023-01-30T00:19:12;101342.59;;;3.19;64.73
19811;BME280;10065;49.632;8.346;2023-01-30T00:21:39;101328.19;;;3.11;64.79
19811;BME280;10065;49.632;8.346;2023-01-30T00:24:08;101325.97;;;3.03;65.22
19811;BME280;10065;49.632;8.346;2023-01-30T00:26:36;101333.25;;;2.98;65.57
19811;BME280;10065;49.632;8.346;2023-01-30T00:29:04;101328.84;;;2.98;65.59
19811;BME280;10065;49.632;8.346;2023-01-30T00:31:32;101326.59;;;2.91;65.90
19811;BME280;10065;49.632;8.346;2023-01-30T00:33:59;101332.16;;;2.85;66.22
19811;BME280;10065;49.632;8.346;2023-01-30T00:36:27;101329.78;;;2.80;66.55
19811;BME280;10065;49.632;8.346;2023-01-30T00:38:55;101320.28;;;2.78;66.72
19811;BME280;10065;49.632;8.346;2023-01-30T00:41:28;101311.91;;;2.71;67.16
19811;BME280;10065;49.632;8.346;2023-01-30T00:44:15;101306.28;;;2.79;67.42
19811;BME280;10065;49.632;8.346;2023-01-30T00:47:02;101304.78;;;2.90;66.81
19811;BME280;10065;49.632;8.346;2023-01-30T00:49:34;101285.22;;;2.97;66.67
19811;BME280;10065;49.632;8.346;2023-01-30T00:52:03;101286.06;;;2.98;66.84
19811;BME280;10065;49.632;8.346;2023-01-30T00:54:31;101265.84;;;3.00;66.49
19811;BME280;10065;49.632;8.346;2023-01-30T00:57:00;101248.69;;;2.94;66.85
19811;BME280;10065;49.632;8.346;2023-01-30T00:59:28;101263.41;;;2.97;67.29
19811;BME280;10065;49.632;8.346;2023-01-30T01:01:55;101249.22;;;3.01;67.03
19811;BME280;10065;49.632;8.346;2023-01-30T01:04:23;101248.31;;;2.85;67.88
19811;BME280;10065;49.632;8.346;2023-01-30T01:06:51;101237.38;;;2.94;67.79
19811;BME280;10065;49.632;8.346;2023-01-30T01:09:19;101242.94;;;2.88;68.37
19811;BME280;10065;49.632;8.346;2023-01-30T01:11:46;101247.91;;;2.92;68.53
19811;BME280;10065;49.632;8.346;2023-01-30T01:14:15;101241.72;;;3.11;67.79
19811;BME280;10065;49.632;8.346;2023-01-30T01:16:43;101242.41;;;3.14;67.38
19811;BME280;10065;49.632;8.346;2023-01-30T01:19:11;101232.84;;;3.13;67.16
19811;BME280;10065;49.632;8.346;2023-01-30T01:21:39;101229.16;;;3.00;67.73
19811;BME280;10065;49.632;8.346;2023-01-30T01:24:11;101245.56;;;2.88;68.14
19811;BME280;10065;49.632;8.346;2023-01-30T01:26:39;101248.41;;;2.83;68.78
19811;BME280;10065;49.632;8.346;2023-01-30T01:29:10;101251.31;;;2.94;68.79
19811;BME280;10065;49.632;8.346;2023-01-30T01:31:40;101254.63;;;2.98;68.74
19811;BME280;10065;49.632;8.346;2023-01-30T01:34:08;101266.63;;;3.02;68.40
19811;BME280;10065;49.632;8.346;2023-01-30T01:36:35;101278.19;;;3.15;68.03
19811;BME280;10065;49.632;8.346;2023-01-30T01:39:21;101275.66;;;3.29;67.56
19811;BME280;10065;49.632;8.346;2023-01-30T01:41:48;101259.09;;;3.45;66.86
19811;BME280;10065;49.632;8.346;2023-01-30T01:44:15;101251.97;;;3.47;66.41
19811;BME280;10065;49.632;8.346;2023-01-30T01:46:47;101247.16;;;3.55;66.22
19811;BME280;10065;49.632;8.346;2023-01-30T01:49:20;101248.09;;;3.54;66.63
19811;BME280;10065;49.632;8.346;2023-01-30T01:51:53;101238.63;;;3.51;67.23
19811;BME280;10065;49.632;8.346;2023-01-30T01:54:26;101222.97;;;3.50;67.45
19811;BME280;10065;49.632;8.346;2023-01-30T01:56:56;101213.00;;;3.56;67.44
19811;BME280;10065;49.632;8.346;2023-01-30T01:59:25;101206.31;;;3.66;66.96
19811;BME280;10065;49.632;8.346;2023-01-30T02:02:01;101201.91;;;3.67;66.75
19811;BME280;10065;49.632;8.346;2023-01-30T02:04:31;101219.50;;;3.65;67.03
19811;BME280;10065;49.632;8.346;2023-01-30T02:07:15;101212.72;;;3.61;67.43
19811;BME280;10065;49.632;8.346;2023-01-30T02:09:44;101208.56;;;3.72;66.85
19811;BME280;10065;49.632;8.346;2023-01-30T02:12:13;101214.59;;;3.74;66.88
19811;BME280;10065;49.632;8.346;2023-01-30T02:14:42;101207.31;;;3.64;67.51
19811;BME280;10065;49.632;8.346;2023-01-30T02:17:11;101207.66;;;3.58;67.52
19811;BME280;10065;49.632;8.346;2023-01-30T02:19:46;101196.91;;;3.62;67.53
19811;BME280;10065;49.632;8.346;2023-01-30T02:25:20;101194.97;;;3.66;67.31
19811;BME280;10065;49.632;8.346;2023-01-30T02:31:13;101178.75;;;3.59;67.74
19811;BME280;10065;49.632;8.346;2023-01-30T02:33:50;101174.16;;;3.63;67.66
19811;BME280;10065;49.632;8.346;2023-01-30T02:36:27;101178.88;;;3.72;67.31
19811;BME280;10065;49.632;8.346;2023-01-30T02:39:04;101182.44;;;3.71;67.56
19811;BME280;10065;49.632;8.346;2023-01-30T02:41:38;101178.44;;;3.79;67.42
19811;BME280;10065;49.632;8.346;2023-01-30T02:44:15;101181.97;;;3.78;66.72
19811;BME280;10065;49.632;8.346;2023-01-30T02:46:51;101188.44;;;3.73;66.39
19811;BME280;10065;49.632;8.346;2023-01-30T02:49:25;101182.38;;;3.57;66.64
19811;BME280;10065;49.632;8.346;2023-01-30T02:51:56;101182.97;;;3.46;67.33
19811;BME280;10065;49.632;8.346;2023-01-30T02:54:26;101187.09;;;3.34;67.67
19811;BME280;10065;49.632;8.346;2023-01-30T02:56:57;101181.78;;;3.36;67.90
19811;BME280;10065;49.632;8.346;2023-01-30T02:59:29;101173.19;;;3.34;67.45
19811;BME280;10065;49.632;8.346;2023-01-30T03:02:27;101179.44;;;3.31;67.56
19811;BME280;10065;49.632;8.346;2023-01-30T03:05:15;101176.03;;;3.29;67.39
19811;BME280;10065;49.632;8.346;2023-01-30T03:07:49;101167.66;;;3.23;67.52
19811;BME280;10065;49.632;8.346;2023-01-30T03:10:28;101166.22;;;3.17;67.76
19811;BME280;10065;49.632;8.346;2023-01-30T03:13:02;101157.94;;;3.09;68.40
19811;BME280;10065;49.632;8.346;2023-01-30T03:15:33;101168.75;;;3.03;68.47
19811;BME280;10065;49.632;8.346;2023-01-30T03:18:03;101170.09;;;3.10;68.55
19811;BME280;10065;49.632;8.346;2023-01-30T03:20:35;101159.38;;;3.15;68.74
19811;BME280;10065;49.632;8.346;2023-01-30T03:23:03;101153.56;;;3.25;68.50
19811;BME280;10065;49.632;8.346;2023-01-30T03:25:33;101151.09;;;3.22;68.79
19811;BME280;10065;49.632;8.346;2023-01-30T03:28:04;101153.63;;;3.24;68.72
19811;BME280;10065;49.632;8.346;2023-01-30T03:30:33;101141.63;;;3.20;68.89
19811;BME280;10065;49.632;8.346;2023-01-30T03:33:01;101154.31;;;3.12;69.55
19811;BME280;10065;49.632;8.346;2023-01-30T03:35:30;101172.72;;;3.10;69.54
19811;BME280;10065;49.632;8.346;2023-01-30T03:37:57;101159.81;;;3.07;70.36
19811;BME280;10065;49.632;8.346;2023-01-30T03:40:25;101164.28;;;3.05;70.92
19811;BME280;10065;49.632;8.346;2023-01-30T03:42:53;101146.44;;;3.27;70.06
19811;BME280;10065;49.632;8.346;2023-01-30T03:45:21;101149.59;;;3.34;69.90
19811;BME280;10065;49.632;8.346;2023-01-30T03:47:48;101155.03;;;3.45;69.37
19811;BME280;10065;49.632;8.346;2023-01-30T03:50:17;101164.69;;;3.45;69.41
19811;BME280;10065;49.632;8.346;2023-01-30T03:52:46;101158.00;;;3.55;69.09
19811;BME280;10065;49.632;8.346;2023-01-30T03:55:14;101169.75;;;3.63;69.06
19811;BME280;10065;49.632;8.346;2023-01-30T03:57:42;101165.19;;;3.67;68.85
19811;BME280;10065;49.632;8.346;2023-01-30T04:00:11;101162.22;;;3.73;68.44
19811;BME280;10065;49.632;8.346;2023-01-30T04:02:38;101153.00;;;3.66;68.84
19811;BME280;10065;49.632;8.346;2023-01-30T04:05:06;101163.34;;;3.69;68.86
19811;BME280;10065;49.632;8.346;2023-01-30T04:07:34;101149.09;;;3.73;68.98
19811;BME280;10065;49.632;8.346;2023-01-30T04:10:04;101141.44;;;3.84;68.55
19811;BME280;10065;49.632;8.346;2023-01-30T04:12:32;101153.56;;;3.71;68.97
19811;BME280;10065;49.632;8.346;2023-01-30T04:14:59;101150.47;;;3.64;69.33
19811;BME280;10065;49.632;8.346;2023-01-30T04:17:27;101145.22;;;3.64;69.78
19811;BME280;10065;49.632;8.346;2023-01-30T04:19:55;101152.06;;;3.67;69.74
19811;BME280;10065;49.632;8.346;2023-01-30T04:22:22;101151.88;;;3.70;69.91
19811;BME280;10065;49.632;8.346;2023-01-30T04:24:50;101143.06;;;3.71;69.71
19811;BME280;10065;49.632;8.346;2023-01-30T04:27:19;101134.13;;;3.75;69.58
19811;BME280;10065;49.632;8.346;2023-01-30T04:29:47;101126.06;;;3.78;69.61
19811;BME280;10065;49.632;8.346;2023-01-30T04:32:15;101111.84;;;3.82;69.28
19811;BME280;10065;49.632;8.346;2023-01-30T04:34:42;101124.38;;;3.77;69.56
19811;BME280;10065;49.632;8.346;2023-01-30T04:37:12;101111.84;;;3.82;69.39
19811;BME280;10065;49.632;8.346;2023-01-30T04:39:40;101123.53;;;3.76;69.55
19811;BME280;10065;49.632;8.346;2023-01-30T04:42:07;101117.13;;;3.66;70.27
19811;BME280;10065;49.632;8.346;2023-01-30T04:44:36;101106.34;;;3.71;69.92
19811;BME280;10065;49.632;8.346;2023-01-30T04:47:04;101098.41;;;3.72;69.72
19811;BME280;10065;49.632;8.346;2023-01-30T04:49:32;101098.88;;;3.79;69.52
19811;BME280;10065;49.632;8.346;2023-01-30T04:52:00;101090.06;;;3.66;69.87
19811;BME280;10065;49.632;8.346;2023-01-30T04:54:29;101107.47;;;3.67;70.41
19811;BME280;10065;49.632;8.346;2023-01-30T04:56:57;101092.31;;;3.72;69.91
19811;BME280;10065;49.632;8.346;2023-01-30T04:59:24;101079.94;;;3.74;69.79
19811;BME280;10065;49.632;8.346;2023-01-30T05:01:54;101077.34;;;3.74;69.63
19811;BME280;10065;49.632;8.346;2023-01-30T05:04:22;101084.34;;;3.73;69.97
19811;BME280;10065;49.632;8.346;2023-01-30T05:06:50;101065.63;;;3.79;69.85
19811;BME280;10065;49.632;8.346;2023-01-30T05:09:17;101057.88;;;3.78;69.35
19811;BME280;10065;49.632;8.346;2023-01-30T05:11:45;101055.59;;;3.72;69.42
19811;BME280;10065;49.632;8.346;2023-01-30T05:14:15;101054.34;;;3.63;69.67
19811;BME280;10065;49.632;8.346;2023-01-30T05:16:42;101063.28;;;3.75;69.41
19811;BME280;10065;49.632;8.346;2023-01-30T05:19:12;101053.63;;;3.75;69.51
19811;BME280;10065;49.632;8.346;2023-01-30T05:21:39;101045.38;;;3.67;69.61
19811;BME280;10065;49.632;8.346;2023-01-30T05:24:07;101039.84;;;3.72;69.64
19811;BME280;10065;49.632;8.346;2023-01-30T05:26:35;101041.53;;;3.73;69.76
19811;BME280;10065;49.632;8.346;2023-01-30T05:29:03;101035.75;;;3.82;69.24
19811;BME280;10065;49.632;8.346;2023-01-30T05:31:30;101028.34;;;3.89;69.25
19811;BME280;10065;49.632;8.346;2023-01-30T05:34:00;101036.97;;;3.91;69.13
19811;BME280;10065;49.632;8.346;2023-01-30T05:36:29;101028.34;;;3.89;68.88
19811;BME280;10065;49.632;8.346;2023-01-30T05:38:57;101055.50;;;3.88;69.29
19811;BME280;10065;49.632;8.346;2023-01-30T05:41:25;101054.41;;;3.92;69.09
19811;BME280;10065;49.632;8.346;2023-01-30T05:43:52;101071.53;;;3.83;69.29
19811;BME280;10065;49.632;8.346;2023-01-30T05:46:20;101075.00;;;3.84;69.81
19811;BME280;10065;49.632;8.346;2023-01-30T05:48:48;101072.31;;;3.85;69.63
19811;BME280;10065;49.632;8.346;2023-01-30T05:51:17;101067.63;;;3.90;69.70
19811;BME280;10065;49.632;8.346;2023-01-30T05:53:47;101063.97;;;3.93;69.57
19811;BME280;10065;49.632;8.346;2023-01-30T05:56:15;101071.56;;;3.97;69.39
19811;BME280;10065;49.632;8.346;2023-01-30T05:58:43;101062.47;;;3.89;69.25
19811;BME280;10065;49.632;8.346;2023-01-30T06:01:16;101063.91;;;3.94;69.27
19811;BME280;10065;49.632;8.346;2023-01-30T06:03:43;101049.47;;;4.01;69.04
19811;BME280;10065;49.632;8.346;2023-01-30T06:06:11;101047.00;;;3.98;69.13
19811;BME280;10065;49.632;8.346;2023-01-30T06:08:39;101028.63;;;3.98;68.96
19811;BME280;10065;49.632;8.346;2023-01-30T06:11:11;101023.59;;;3.95;69.45
19811;BME280;10065;49.632;8.346;2023-01-30T06:13:39;101016.38;;;3.99;69.35
19811;BME280;10065;49.632;8.346;2023-01-30T06:16:08;101013.66;;;4.00;69.11
19811;BME280;10065;49.632;8.346;2023-01-30T06:18:37;100995.84;;;3.91;69.71
19811;BME280;10065;49.632;8.346;2023-01-30T06:21:06;100988.72;;;3.93;69.67
19811;BME280;10065;49.632;8.346;2023-01-30T06:23:34;100992.28;;;3.92;69.95
19811;BME280;10065;49.632;8.346;2023-01-30T06:26:02;100990.22;;;3.97;69.72
19811;BME280;10065;49.632;8.346;2023-01-30T06:28:35;100989.75;;;3.91;70.42
19811;BME280;10065;49.632;8.346;2023-01-30T06:31:05;100977.56;;;3.90;70.53
19811;BME280;10065;49.632;8.346;2023-01-30T06:33:33;100986.03;;;3.95;70.20
19811;BME280;10065;49.632;8.346;2023-01-30T06:36:01;100983.94;;;4.00;70.15
19811;BME280;10065;49.632;8.346;2023-01-30T06:38:28;101002.03;;;4.04;70.18
19811;BME280;10065;49.632;8.346;2023-01-30T06:40:56;100987.97;;;4.05;70.02
19811;BME280;10065;49.632;8.346;2023-01-30T06:43:24;101004.66;;;3.90;70.44
19811;BME280;10065;49.632;8.346;2023-01-30T06:45:53;101006.03;;;3.82;71.19
19811;BME280;10065;49.632;8.346;2023-01-30T06:48:21;100997.16;;;3.84;71.61
19811;BME280;10065;49.632;8.346;2023-01-30T06:50:48;100998.25;;;3.80;72.04
19811;BME280;10065;49.632;8.346;2023-01-30T06:53:16;101001.09;;;3.91;71.90
19811;BME280;10065;49.632;8.346;2023-01-30T06:55:44;100995.47;;;3.97;71.66
19811;BME280;10065;49.632;8.346;2023-01-30T06:58:13;101003.91;;;4.02;71.33
19811;BME280;10065;49.632;8.346;2023-01-30T07:00:42;100995.09;;;4.03;71.33
19811;BME280;10065;49.632;8.346;2023-01-30T07:03:11;100994.91;;;4.06;71.57
19811;BME280;10065;49.632;8.346;2023-01-30T07:05:40;100989.09;;;4.15;70.87
19811;BME280;10065;49.632;8.346;2023-01-30T07:08:09;100994.16;;;4.19;70.94
19811;BME280;10065;49.632;8.346;2023-01-30T07:10:37;100988.91;;;4.19;71.19
19811;BME280;10065;49.632;8.346;2023-01-30T07:13:08;100985.13;;;4.23;71.37
19811;BME280;10065;49.632;8.346;2023-01-30T07:15:36;100998.25;;;4.23;71.47
19811;BME280;10065;49.632;8.346;2023-01-30T07:18:04;100984.78;;;4.29;71.06
19811;BME280;10065;49.632;8.346;2023-01-30T07:20:33;100980.91;;;4.34;70.92
19811;BME280;10065;49.632;8.346;2023-01-30T07:23:01;100987.69;;;4.38;70.66
19811;BME280;10065;49.632;8.346;2023-01-30T07:25:29;100985.00;;;4.52;70.28
19811;BME280;10065;49.632;8.346;2023-01-30T07:27:58;100992.22;;;4.49;70.52
19811;BME280;10065;49.632;8.346;2023-01-30T07:30:30;100988.22;;;4.43;70.48
19811;BME280;10065;49.632;8.346;2023-01-30T07:32:59;101009.88;;;4.47;70.47
19811;BME280;10065;49.632;8.346;2023-01-30T07:35:30;101007.19;;;4.48;70.41
19811;BME280;10065;49.632;8.346;2023-01-30T07:37:59;101012.31;;;4.50;70.52
19811;BME280;10065;49.632;8.346;2023-01-30T07:40:27;101010.06;;;4.44;70.98
19811;BME280;10065;49.632;8.346;2023-01-30T07:42:56;100982.13;;;4.43;71.41
19811;BME280;10065;49.632;8.346;2023-01-30T07:45:24;100997.31;;;4.52;70.85
19811;BME280;10065;49.632;8.346;2023-01-30T07:47:52;101003.69;;;4.48;71.07
19811;BME280;10065;49.632;8.346;2023-01-30T07:50:20;100996.28;;;4.40;71.21
19811;BME280;10065;49.632;8.346;2023-01-30T07:52:48;100995.44;;;4.40;71.83
19811;BME280;10065;49.632;8.346;2023-01-30T07:55:17;100997.69;;;4.46;71.69
19811;BME280;10065;49.632;8.346;2023-01-30T07:57:45;101003.50;;;4.51;71.36
19811;BME280;10065;49.632;8.346;2023-01-30T08:00:14;101015.28;;;4.58;71.17
19811;BME280;10065;49.632;8.346;2023-01-30T08:02:42;101006.28;;;4.62;71.06
19811;BME280;10065;49.632;8.346;2023-01-30T08:05:10;101003.47;;;4.65;71.06
19811;BME280;10065;49.632;8.346;2023-01-30T08:07:38;101004.78;;;4.72;70.70
19811;BME280;10065;49.632;8.346;2023-01-30T08:10:07;101015.06;;;4.75;70.62
19811;BME280;10065;49.632;8.346;2023-01-30T08:12:39;101000.06;;;4.77;70.25
19811;BME280;10065;49.632;8.346;2023-01-30T08:15:08;101001.56;;;4.81;70.21
19811;BME280;10065;49.632;8.346;2023-01-30T08:17:36;101011.31;;;4.79;70.16
19811;BME280;10065;49.632;8.346;2023-01-30T08:20:05;100993.00;;;4.78;70.19
19811;BME280;10065;49.632;8.346;2023-01-30T08:22:33;101010.19;;;4.83;70.16
19811;BME280;10065;49.632;8.346;2023-01-30T08:25:01;101004.81;;;4.85;70.07
19811;BME280;10065;49.632;8.346;2023-01-30T08:27:28;100996.22;;;4.83;70.23
19811;BME280;10065;49.632;8.346;2023-01-30T08:29:57;100983.44;;;4.77;70.29
19811;BME280;10065;49.632;8.346;2023-01-30T08:32:25;100986.16;;;4.75;70.37
19811;BME280;10065;49.632;8.346;2023-01-30T08:34:53;100984.84;;;4.82;70.10
19811;BME280;10065;49.632;8.346;2023-01-30T08:37:21;100992.25;;;4.90;69.64
19811;BME280;10065;49.632;8.346;2023-01-30T08:39:48;100987.06;;;4.88;69.69
19811;BME280;10065;49.632;8.346;2023-01-30T08:42:16;100988.34;;;4.96;69.67
19811;BME280;10065;49.632;8.346;2023-01-30T08:44:44;101003.84;;;5.00;69.25
19811;BME280;10065;49.632;8.346;2023-01-30T08:47:13;101012.44;;;5.02;69.00
19811;BME280;10065;49.632;8.346;2023-01-30T08:49:41;100993.34;;;5.00;69.02
19811;BME280;10065;49.632;8.346;2023-01-30T08:52:09;100999.97;;;5.06;68.78
19811;BME280;10065;49.632;8.346;2023-01-30T08:54:36;100984.94;;;5.08;68.76
19811;BME280;10065;49.632;8.346;2023-01-30T08:57:04;100987.91;;;5.16;68.41
19811;BME280;10065;49.632;8.346;2023-01-30T08:59:32;100991.91;;;5.21;68.38
19811;BME280;10065;49.632;8.346;2023-01-30T09:02:00;100994.63;;;5.20;68.68
19811;BME280;10065;49.632;8.346;2023-01-30T09:04:29;100983.28;;;5.19;68.53
19811;BME280;10065;49.632;8.346;2023-01-30T09:06:57;100966.69;;;5.19;68.24
19811;BME280;10065;49.632;8.346;2023-01-30T09:09:27;100958.03;;;5.17;68.89
19811;BME280;10065;49.632;8.346;2023-01-30T09:11:55;100954.47;;;5.18;68.57
19811;BME280;10065;49.632;8.346;2023-01-30T09:14:22;100952.78;;;5.17;68.64
19811;BME280;10065;49.632;8.346;2023-01-30T09:16:50;100952.69;;;5.18;68.49
19811;BME280;10065;49.632;8.346;2023-01-30T09:19:21;100957.72;;;5.09;68.97
19811;BME280;10065;49.632;8.346;2023-01-30T09:21:51;100939.00;;;5.13;68.72
19811;BME280;10065;49.632;8.346;2023-01-30T09:24:19;100912.59;;;5.15;68.64
19811;BME280;10065;49.632;8.346;2023-01-30T09:26:51;100906.41;;;5.28;68.35
19811;BME280;10065;49.632;8.346;2023-01-30T09:29:19;100925.13;;;5.37;67.90
19811;BME280;10065;49.632;8.346;2023-01-30T09:31:48;100928.50;;;5.39;67.88
19811;BME280;10065;49.632;8.346;2023-01-30T09:34:16;100941.03;;;5.35;67.75
19811;BME280;10065;49.632;8.346;2023-01-30T09:36:44;100939.13;;;5.37;67.77
19811;BME280;10065;49.632;8.346;2023-01-30T09:39:14;100946.06;;;5.38;67.85
19811;BME280;10065;49.632;8.346;2023-01-30T09:41:52;100954.19;;;5.35;68.06
19811;BME280;10065;49.632;8.346;2023-01-30T09:44:59;100943.66;;;5.35;67.73
19811;BME280;10065;49.632;8.346;2023-01-30T09:47:41;100960.16;;;5.37;67.94
19811;BME280;10065;49.632;8.346;2023-01-30T09:50:40;100947.84;;;5.25;68.57
19811;BME280;10065;49.632;8.346;2023-01-30T09:53:17;100957.22;;;5.29;68.33
19811;BME280;10065;49.632;8.346;2023-01-30T09:55:54;100975.53;;;5.30;68.56
19811;BME280;10065;49.632;8.346;2023-01-30T09:58:28;100992.91;;;5.33;68.46
19811;BME280;10065;49.632;8.346;2023-01-30T10:01:06;100963.63;;;5.25;68.75
19811;BME280;10065;49.632;8.346;2023-01-30T10:03:51;100952.56;;;5.20;69.25
19811;BME280;10065;49.632;8.346;2023-01-30T10:06:21;100951.75;;;5.32;68.98
19811;BME280;10065;49.632;8.346;2023-01-30T10:08:52;100957.66;;;5.48;68.70
19811;BME280;10065;49.632;8.346;2023-01-30T10:11:34;100950.94;;;5.57;68.19
19811;BME280;10065;49.632;8.346;2023-01-30T10:14:16;100955.66;;;5.64;68.22
19811;BME280;10065;49.632;8.346;2023-01-30T10:16:54;100943.81;;;5.72;67.88
19811;BME280;10065;49.632;8.346;2023-01-30T10:19:48;100946.97;;;5.89;67.60
19811;BME280;10065;49.632;8.346;2023-01-30T10:22:31;100964.44;;;6.03;66.97
19811;BME280;10065;49.632;8.346;2023-01-30T10:25:14;100976.94;;;6.25;66.52
19811;BME280;10065;49.632;8.346;2023-01-30T10:27:49;100967.19;;;7.22;63.67
19811;BME280;10065;49.632;8.346;2023-01-30T10:30:19;100959.38;;;7.67;61.29
19811;BME280;10065;49.632;8.346;2023-01-30T10:32:51;100952.88;;;7.60;60.41
19811;BME280;10065;49.632;8.346;2023-01-30T10:35:22;100959.22;;;7.46;61.02
19811;BME280;10065;49.632;8.346;2023-01-30T10:37:58;100967.94;;;7.35;61.21
19811;BME280;10065;49.632;8.346;2023-01-30T10:40:31;100992.59;;;7.23;61.86
19811;BME280;10065;49.632;8.346;2023-01-30T10:43:11;100959.50;;;6.95;62.59
19811;BME280;10065;49.632;8.346;2023-01-30T10:45:47;100951.22;;;6.89;63.40
19811;BME280;10065;49.632;8.346;2023-01-30T10:48:39;100966.03;;;7.02;63.11
19811;BME280;10065;49.632;8.346;2023-01-30T10:51:18;100952.50;;;7.07;63.24
19811;BME280;10065;49.632;8.346;2023-01-30T10:53:52;100952.59;;;6.94;63.64
19811;BME280;10065;49.632;8.346;2023-01-30T10:56:32;100943.56;;;6.86;63.98
19811;BME280;10065;49.632;8.346;2023-01-30T10:59:19;100948.75;;;6.51;65.45
19811;BME280;10065;49.632;8.346;2023-01-30T11:01:55;100943.16;;;6.42;66.25
19811;BME280;10065;49.632;8.346;2023-01-30T11:04:30;100944.06;;;6.30;66.75
19811;BME280;10065;49.632;8.346;2023-01-30T11:06:59;100946.31;;;6.24;67.17
19811;BME280;10065;49.632;8.346;2023-01-30T11:09:41;100932.69;;;6.17;67.56
19811;BME280;10065;49.632;8.346;2023-01-30T11:12:09;100920.44;;;6.05;67.95
19811;BME280;10065;49.632;8.346;2023-01-30T11:14:52;100915.25;;;6.03;68.38
19811;BME280;10065;49.632;8.346;2023-01-30T11:17:28;100929.16;;;6.06;68.57
19811;BME280;10065;49.632;8.346;2023-01-30T11:20:02;100934.53;;;6.04;68.78
19811;BME280;10065;49.632;8.346;2023-01-30T11:22:34;100936.81;;;6.09;68.58
19811;BME280;10065;49.632;8.346;2023-01-30T11:25:05;100933.88;;;6.13;68.41
19811;BME280;10065;49.632;8.346;2023-01-30T11:27:33;100919.34;;;6.20;68.56
19811;BME280;10065;49.632;8.346;2023-01-30T11:30:05;100932.53;;;6.44;67.74
19811;BME280;10065;49.632;8.346;2023-01-30T11:32:34;100932.94;;;6.51;67.66
19811;BME280;10065;49.632;8.346;2023-01-30T11:35:21;100936.28;;;6.53;67.49
19811;BME280;10065;49.632;8.346;2023-01-30T11:37:52;100931.81;;;6.66;67.36
19811;BME280;10065;49.632;8.346;2023-01-30T11:40:26;100910.97;;;7.33;65.19
19811;BME280;10065;49.632;8.346;2023-01-30T11:43:01;100899.94;;;8.50;61.68
19811;BME280;10065;49.632;8.346;2023-01-30T11:45:35;100890.69;;;10.70;55.14
19811;BME280;10065;49.632;8.346;2023-01-30T11:48:09;100899.81;;;10.28;53.85
19811;BME280;10065;49.632;8.346;2023-01-30T11:51:00;100911.94;;;9.18;56.52
19811;BME280;10065;49.632;8.346;2023-01-30T11:53:33;100925.63;;;8.59;58.61
19811;BME280;10065;49.632;8.346;2023-01-30T11:56:06;100919.78;;;8.11;60.55
19811;BME280;10065;49.632;8.346;2023-01-30T11:58:39;100912.00;;;7.87;61.38
19811;BME280;10065;49.632;8.346;2023-01-30T12:01:09;100913.91;;;7.74;62.18
19811;BME280;10065;49.632;8.346;2023-01-30T12:03:44;100924.22;;;7.66;62.86
19811;BME280;10065;49.632;8.346;2023-01-30T12:06:20;100925.16;;;7.65;63.05
19811;BME280;10065;49.632;8.346;2023-01-30T12:08:51;100918.97;;;7.88;62.61
19811;BME280;10065;49.632;8.346;2023-01-30T12:11:26;100919.66;;;8.02;61.81
19811;BME280;10065;49.632;8.346;2023-01-30T12:14:12;100932.38;;;8.19;61.33
19811;BME280;10065;49.632;8.346;2023-01-30T12:16:51;100939.72;;;8.15;61.30
19811;BME280;10065;49.632;8.346;2023-01-30T12:19:38;100931.81;;;8.04;61.56
19811;BME280;10065;49.632;8.346;2023-01-30T12:22:17;100934.78;;;7.77;62.83
19811;BME280;10065;49.632;8.346;2023-01-30T12:24:51;100948.59;;;8.03;62.72
19811;BME280;10065;49.632;8.346;2023-01-30T12:27:30;100932.47;;;8.62;61.46
19811;BME280;10065;49.632;8.346;2023-01-30T12:30:08;100948.25;;;8.95;60.33
19811;BME280;10065;49.632;8.346;2023-01-30T12:32:44;100933.41;;;9.04;59.38
19811;BME280;10065;49.632;8.346;2023-01-30T12:35:14;100943.69;;;9.18;59.40
19811;BME280;10065;49.632;8.346;2023-01-30T12:37:50;100939.81;;;9.64;58.62
19811;BME280;10065;49.632;8.346;2023-01-30T12:40:34;100935.31;;;9.55;57.75
19811;BME280;10065;49.632;8.346;2023-01-30T12:46:06;100934.66;;;8.57;60.84
19811;BME280;10065;49.632;8.346;2023-01-30T12:48:52;100932.03;;;8.46;62.11
19811;BME280;10065;49.632;8.346;2023-01-30T12:51:50;100917.06;;;8.99;60.42
19811;BME280;10065;49.632;8.346;2023-01-30T12:54:35;100916.06;;;9.11;60.15
19811;BME280;10065;49.632;8.346;2023-01-30T12:57:13;100923.19;;;8.99;60.13
19811;BME280;10065;49.632;8.346;2023-01-30T12:59:51;100924.16;;;8.78;60.60
19811;BME280;10065;49.632;8.346;2023-01-30T13:05:32;100932.16;;;8.11;63.12
19811;BME280;10065;49.632;8.346;2023-01-30T13:08:17;100939.59;;;7.94;64.16
19811;BME280;10065;49.632;8.346;2023-01-30T13:10:51;100940.31;;;7.85;64.78
19811;BME280;10065;49.632;8.346;2023-01-30T13:13:28;100937.09;;;7.71;65.18
19811;BME280;10065;49.632;8.346;2023-01-30T13:16:04;100923.38;;;7.54;65.77
19811;BME280;10065;49.632;8.346;2023-01-30T13:18:42;100938.81;;;7.37;66.93
19811;BME280;10065;49.632;8.346;2023-01-30T13:21:18;100944.53;;;7.20;67.65
19811;BME280;10065;49.632;8.346;2023-01-30T13:23:59;100937.91;;;7.14;68.08
19811;BME280;10065;49.632;8.346;2023-01-30T13:26:32;100940.88;;;7.09;68.26
19811;BME280;10065;49.632;8.346;2023-01-30T13:29:03;100935.09;;;7.04;68.50
19811;BME280;10065;49.632;8.346;2023-01-30T13:31:35;100930.06;;;7.01;68.84
19811;BME280;10065;49.632;8.346;2023-01-30T13:34:08;100938.72;;;7.03;69.02
19811;BME280;10065;49.632;8.346;2023-01-30T13:36:42;100951.66;;;7.06;68.88